Hlavní strana
METAR-TAF:

METAR-TAF

Letiště :

Nuakšott, Mauritánie

zeměpisná šířka: 18-18-36N, zeměpisná délka: 015-58-11W, výška: 3 m

Aktuální stav počasí

Zpráva byla vytvořena před 15 minutami, v 14:30 UTC
Severovýchodní vítr 11 kt
Teplota 33°C
Vlhkost vzduchu 11%
Tlak 1012 hPa
Viditelnost 10 km a více
Žádná oblačnost pod 1500 m, nevyskytují se cumulonimby.

METAR: GQNO 031430Z 05011KT CAVOK 33/M01 Q1012 NOSIG

Čas: 14:45 (14:45 UTC)

Předpověď počasí

Zpráva byla vytvořena před 9 hodinami a 45 minutami, v 05:00 UTC
Předpověď platná od 03 v 06 UTC do 04 v 12 UTC
Východoseverovýchodní vítr 12 kt
Viditelnost: 8000 m
Změna
od 03 v 10 UTC do 03 v 12 UTC
Viditelnost: 4500 m
zvířený písek
Změna
od 03 v 18 UTC do 03 v 20 UTC
Viditelnost: 6000 m
Pravděpodobnost 40% :
Dočasný
od 04 v 09 UTC do 04 v 12 UTC
Viditelnost: 4000 m
zvířený písek

TAF: GQNO 030500Z 0306/0412 06012KT 8000 NSC BECMG 0310/0312 4500 BLSA BECMG 0318/0320 6000 NSW PROB40 TEMPO 0409/0412 4000 BLSA

Stav a předpovědi počasí z více než 4 000 letišť (zprávy METAR a TAF).

Červené a žluté tečky na mapě představují dostupné meteorologické stanice.

Když kurzor umístíte na tečku, zobrazí se název stanice.

Pak kliknutím zobrazíte stav a předpověď počasí.

Chcete-li změnit mapu, kliknutím na zelené tlačítko se znaménkem +mapu přiblížíte, kliknutím na zelené tlačítko se znaménkem – mapu oddálíte a kliknutím na zelené šipky přejdete na sousední mapy.


METAR-TAF: